sensor_id;sensor_type;location;lat;lon;timestamp;P1;durP1;ratioP1;P2;durP2;ratioP2
6143;SDS011;3103;49.492;8.474;2022-11-25T00:01:27;9.17;;;4.17;;
6143;SDS011;3103;49.492;8.474;2022-11-25T00:03:55;16.07;;;7.77;;
6143;SDS011;3103;49.492;8.474;2022-11-25T00:06:24;9.97;;;4.70;;
6143;SDS011;3103;49.492;8.474;2022-11-25T00:08:58;7.53;;;4.53;;
6143;SDS011;3103;49.492;8.474;2022-11-25T00:11:30;9.23;;;4.80;;
6143;SDS011;3103;49.492;8.474;2022-11-25T00:14:00;12.83;;;5.47;;
6143;SDS011;3103;49.492;8.474;2022-11-25T00:16:27;11.60;;;5.33;;
6143;SDS011;3103;49.492;8.474;2022-11-25T00:18:54;10.53;;;5.77;;
6143;SDS011;3103;49.492;8.474;2022-11-25T00:21:23;13.70;;;5.57;;
6143;SDS011;3103;49.492;8.474;2022-11-25T00:23:55;17.30;;;7.70;;
6143;SDS011;3103;49.492;8.474;2022-11-25T00:26:24;11.20;;;6.33;;
6143;SDS011;3103;49.492;8.474;2022-11-25T00:28:52;13.47;;;6.37;;
6143;SDS011;3103;49.492;8.474;2022-11-25T00:31:20;11.10;;;4.53;;
6143;SDS011;3103;49.492;8.474;2022-11-25T00:33:49;11.07;;;5.57;;
6143;SDS011;3103;49.492;8.474;2022-11-25T00:38:43;14.20;;;6.83;;
6143;SDS011;3103;49.492;8.474;2022-11-25T00:41:10;16.70;;;6.53;;
6143;SDS011;3103;49.492;8.474;2022-11-25T00:43:56;19.50;;;7.30;;
6143;SDS011;3103;49.492;8.474;2022-11-25T00:46:41;12.50;;;6.20;;
6143;SDS011;3103;49.492;8.474;2022-11-25T00:49:08;16.47;;;7.07;;
6143;SDS011;3103;49.492;8.474;2022-11-25T00:51:35;11.87;;;5.60;;
6143;SDS011;3103;49.492;8.474;2022-11-25T00:54:02;10.23;;;4.50;;
6143;SDS011;3103;49.492;8.474;2022-11-25T00:56:29;11.17;;;5.00;;
6143;SDS011;3103;49.492;8.474;2022-11-25T00:58:57;10.77;;;5.10;;
6143;SDS011;3103;49.492;8.474;2022-11-25T01:01:24;12.17;;;5.50;;
6143;SDS011;3103;49.492;8.474;2022-11-25T01:03:51;10.37;;;4.67;;
6143;SDS011;3103;49.492;8.474;2022-11-25T01:06:18;9.07;;;4.63;;
6143;SDS011;3103;49.492;8.474;2022-11-25T01:08:45;7.60;;;3.97;;
6143;SDS011;3103;49.492;8.474;2022-11-25T01:11:14;19.63;;;6.13;;
6143;SDS011;3103;49.492;8.474;2022-11-25T01:13:43;8.00;;;3.40;;
6143;SDS011;3103;49.492;8.474;2022-11-25T01:16:10;9.83;;;3.50;;
6143;SDS011;3103;49.492;8.474;2022-11-25T01:18:39;13.27;;;3.77;;
6143;SDS011;3103;49.492;8.474;2022-11-25T01:21:14;10.03;;;3.87;;
6143;SDS011;3103;49.492;8.474;2022-11-25T01:23:44;12.03;;;3.87;;
6143;SDS011;3103;49.492;8.474;2022-11-25T01:26:12;9.60;;;4.47;;
6143;SDS011;3103;49.492;8.474;2022-11-25T01:28:43;9.13;;;3.70;;
6143;SDS011;3103;49.492;8.474;2022-11-25T01:33:37;10.90;;;3.37;;
6143;SDS011;3103;49.492;8.474;2022-11-25T01:36:05;6.07;;;3.27;;
6143;SDS011;3103;49.492;8.474;2022-11-25T01:38:33;8.07;;;3.50;;
6143;SDS011;3103;49.492;8.474;2022-11-25T01:41:00;8.93;;;3.97;;
6143;SDS011;3103;49.492;8.474;2022-11-25T01:43:28;7.90;;;3.90;;
6143;SDS011;3103;49.492;8.474;2022-11-25T01:46:06;8.03;;;3.40;;
6143;SDS011;3103;49.492;8.474;2022-11-25T01:48:47;7.10;;;3.20;;
6143;SDS011;3103;49.492;8.474;2022-11-25T01:51:22;13.90;;;4.80;;
6143;SDS011;3103;49.492;8.474;2022-11-25T01:53:53;7.13;;;4.30;;
6143;SDS011;3103;49.492;8.474;2022-11-25T01:56:25;8.10;;;3.20;;
6143;SDS011;3103;49.492;8.474;2022-11-25T01:58:57;6.67;;;3.47;;
6143;SDS011;3103;49.492;8.474;2022-11-25T02:01:24;9.37;;;3.47;;
6143;SDS011;3103;49.492;8.474;2022-11-25T02:03:54;11.50;;;3.20;;
6143;SDS011;3103;49.492;8.474;2022-11-25T02:06:28;7.53;;;3.77;;
6143;SDS011;3103;49.492;8.474;2022-11-25T02:09:03;8.43;;;3.70;;
6143;SDS011;3103;49.492;8.474;2022-11-25T02:11:33;7.97;;;3.00;;
6143;SDS011;3103;49.492;8.474;2022-11-25T02:14:04;7.43;;;3.50;;
6143;SDS011;3103;49.492;8.474;2022-11-25T02:16:32;6.20;;;3.17;;
6143;SDS011;3103;49.492;8.474;2022-11-25T02:18:59;7.03;;;3.40;;
6143;SDS011;3103;49.492;8.474;2022-11-25T02:21:30;9.03;;;4.03;;
6143;SDS011;3103;49.492;8.474;2022-11-25T02:26:48;5.57;;;2.67;;
6143;SDS011;3103;49.492;8.474;2022-11-25T02:29:15;8.60;;;3.13;;
6143;SDS011;3103;49.492;8.474;2022-11-25T02:31:43;5.33;;;3.00;;
6143;SDS011;3103;49.492;8.474;2022-11-25T02:34:11;7.07;;;3.30;;
6143;SDS011;3103;49.492;8.474;2022-11-25T02:36:38;7.50;;;3.30;;
6143;SDS011;3103;49.492;8.474;2022-11-25T02:39:05;9.33;;;3.20;;
6143;SDS011;3103;49.492;8.474;2022-11-25T02:41:38;8.47;;;2.87;;
6143;SDS011;3103;49.492;8.474;2022-11-25T02:44:07;6.77;;;3.10;;
6143;SDS011;3103;49.492;8.474;2022-11-25T02:46:37;8.40;;;3.23;;
6143;SDS011;3103;49.492;8.474;2022-11-25T02:49:04;5.20;;;3.20;;
6143;SDS011;3103;49.492;8.474;2022-11-25T02:51:36;3.93;;;2.50;;
6143;SDS011;3103;49.492;8.474;2022-11-25T02:54:05;7.27;;;3.43;;
6143;SDS011;3103;49.492;8.474;2022-11-25T02:56:33;6.83;;;3.50;;
6143;SDS011;3103;49.492;8.474;2022-11-25T02:59:00;7.80;;;3.20;;
6143;SDS011;3103;49.492;8.474;2022-11-25T03:01:28;6.03;;;3.23;;
6143;SDS011;3103;49.492;8.474;2022-11-25T03:03:57;6.70;;;2.97;;
6143;SDS011;3103;49.492;8.474;2022-11-25T03:06:26;7.20;;;3.33;;
6143;SDS011;3103;49.492;8.474;2022-11-25T03:08:54;6.40;;;3.00;;
6143;SDS011;3103;49.492;8.474;2022-11-25T03:11:22;5.47;;;2.83;;
6143;SDS011;3103;49.492;8.474;2022-11-25T03:14:13;7.27;;;3.40;;
6143;SDS011;3103;49.492;8.474;2022-11-25T03:16:41;7.47;;;3.63;;
6143;SDS011;3103;49.492;8.474;2022-11-25T03:19:08;8.40;;;3.20;;
6143;SDS011;3103;49.492;8.474;2022-11-25T03:21:35;7.33;;;3.47;;
6143;SDS011;3103;49.492;8.474;2022-11-25T03:24:02;7.33;;;3.90;;
6143;SDS011;3103;49.492;8.474;2022-11-25T03:26:29;6.30;;;3.40;;
6143;SDS011;3103;49.492;8.474;2022-11-25T03:28:56;8.57;;;3.20;;
6143;SDS011;3103;49.492;8.474;2022-11-25T03:31:22;7.60;;;3.70;;
6143;SDS011;3103;49.492;8.474;2022-11-25T03:33:49;6.77;;;3.13;;
6143;SDS011;3103;49.492;8.474;2022-11-25T03:36:16;8.43;;;3.40;;
6143;SDS011;3103;49.492;8.474;2022-11-25T03:38:42;7.70;;;3.50;;
6143;SDS011;3103;49.492;8.474;2022-11-25T03:41:09;7.07;;;2.90;;
6143;SDS011;3103;49.492;8.474;2022-11-25T03:43:36;6.27;;;3.33;;
6143;SDS011;3103;49.492;8.474;2022-11-25T03:46:03;4.50;;;3.07;;
6143;SDS011;3103;49.492;8.474;2022-11-25T03:48:30;6.27;;;3.13;;
6143;SDS011;3103;49.492;8.474;2022-11-25T03:50:57;6.07;;;3.40;;
6143;SDS011;3103;49.492;8.474;2022-11-25T03:53:25;4.93;;;2.93;;
6143;SDS011;3103;49.492;8.474;2022-11-25T03:55:52;4.90;;;3.10;;
6143;SDS011;3103;49.492;8.474;2022-11-25T03:58:21;5.87;;;2.97;;
6143;SDS011;3103;49.492;8.474;2022-11-25T04:00:49;6.97;;;3.00;;
6143;SDS011;3103;49.492;8.474;2022-11-25T04:03:17;4.43;;;2.50;;
6143;SDS011;3103;49.492;8.474;2022-11-25T04:05:43;5.27;;;2.80;;
6143;SDS011;3103;49.492;8.474;2022-11-25T04:08:12;8.47;;;3.47;;
6143;SDS011;3103;49.492;8.474;2022-11-25T04:10:39;8.23;;;2.90;;
6143;SDS011;3103;49.492;8.474;2022-11-25T04:13:07;7.27;;;3.20;;
6143;SDS011;3103;49.492;8.474;2022-11-25T04:15:42;5.83;;;2.80;;
6143;SDS011;3103;49.492;8.474;2022-11-25T04:18:14;7.13;;;3.27;;
6143;SDS011;3103;49.492;8.474;2022-11-25T04:20:42;7.20;;;2.97;;
6143;SDS011;3103;49.492;8.474;2022-11-25T04:23:10;4.27;;;2.53;;
6143;SDS011;3103;49.492;8.474;2022-11-25T04:25:43;9.47;;;2.93;;
6143;SDS011;3103;49.492;8.474;2022-11-25T04:28:21;6.93;;;2.90;;
6143;SDS011;3103;49.492;8.474;2022-11-25T04:30:48;6.93;;;3.00;;
6143;SDS011;3103;49.492;8.474;2022-11-25T04:33:16;8.90;;;3.40;;
6143;SDS011;3103;49.492;8.474;2022-11-25T04:35:44;6.90;;;3.00;;
6143;SDS011;3103;49.492;8.474;2022-11-25T04:38:11;6.30;;;3.00;;
6143;SDS011;3103;49.492;8.474;2022-11-25T04:40:38;6.37;;;3.50;;
6143;SDS011;3103;49.492;8.474;2022-11-25T04:43:19;8.10;;;3.20;;
6143;SDS011;3103;49.492;8.474;2022-11-25T04:46:06;8.90;;;3.00;;
6143;SDS011;3103;49.492;8.474;2022-11-25T04:48:43;6.47;;;3.10;;
6143;SDS011;3103;49.492;8.474;2022-11-25T04:51:10;9.00;;;3.00;;
6143;SDS011;3103;49.492;8.474;2022-11-25T04:53:37;6.87;;;3.00;;
6143;SDS011;3103;49.492;8.474;2022-11-25T04:56:06;5.17;;;3.20;;
6143;SDS011;3103;49.492;8.474;2022-11-25T04:58:40;8.60;;;3.37;;
6143;SDS011;3103;49.492;8.474;2022-11-25T05:01:26;4.20;;;2.90;;
6143;SDS011;3103;49.492;8.474;2022-11-25T05:04:00;6.97;;;2.83;;
6143;SDS011;3103;49.492;8.474;2022-11-25T05:06:27;5.60;;;3.17;;
6143;SDS011;3103;49.492;8.474;2022-11-25T05:08:53;5.77;;;2.73;;
6143;SDS011;3103;49.492;8.474;2022-11-25T05:11:23;6.13;;;3.10;;
6143;SDS011;3103;49.492;8.474;2022-11-25T05:13:51;6.83;;;2.97;;
6143;SDS011;3103;49.492;8.474;2022-11-25T05:16:18;6.53;;;3.17;;
6143;SDS011;3103;49.492;8.474;2022-11-25T05:18:46;8.00;;;3.47;;
6143;SDS011;3103;49.492;8.474;2022-11-25T05:21:12;7.57;;;3.03;;
6143;SDS011;3103;49.492;8.474;2022-11-25T05:23:41;6.87;;;3.30;;
6143;SDS011;3103;49.492;8.474;2022-11-25T05:26:08;5.27;;;3.07;;
6143;SDS011;3103;49.492;8.474;2022-11-25T05:28:39;7.90;;;3.30;;
6143;SDS011;3103;49.492;8.474;2022-11-25T05:31:06;9.07;;;3.03;;
6143;SDS011;3103;49.492;8.474;2022-11-25T05:33:32;6.13;;;3.30;;
6143;SDS011;3103;49.492;8.474;2022-11-25T05:36:00;5.90;;;2.83;;
6143;SDS011;3103;49.492;8.474;2022-11-25T05:38:35;14.40;;;3.23;;
6143;SDS011;3103;49.492;8.474;2022-11-25T05:41:03;8.13;;;3.13;;
6143;SDS011;3103;49.492;8.474;2022-11-25T05:43:31;6.83;;;2.93;;
6143;SDS011;3103;49.492;8.474;2022-11-25T05:46:02;5.17;;;2.63;;
6143;SDS011;3103;49.492;8.474;2022-11-25T05:48:31;6.73;;;3.20;;
6143;SDS011;3103;49.492;8.474;2022-11-25T05:51:01;6.60;;;3.53;;
6143;SDS011;3103;49.492;8.474;2022-11-25T05:53:29;7.87;;;3.20;;
6143;SDS011;3103;49.492;8.474;2022-11-25T05:55:57;6.23;;;3.13;;
6143;SDS011;3103;49.492;8.474;2022-11-25T05:58:44;8.53;;;3.33;;
6143;SDS011;3103;49.492;8.474;2022-11-25T06:01:13;5.57;;;2.80;;
6143;SDS011;3103;49.492;8.474;2022-11-25T06:03:43;7.10;;;2.97;;
6143;SDS011;3103;49.492;8.474;2022-11-25T06:06:11;7.07;;;3.07;;
6143;SDS011;3103;49.492;8.474;2022-11-25T06:08:40;8.17;;;3.27;;
6143;SDS011;3103;49.492;8.474;2022-11-25T06:11:08;6.60;;;3.50;;
6143;SDS011;3103;49.492;8.474;2022-11-25T06:13:38;9.33;;;3.23;;
6143;SDS011;3103;49.492;8.474;2022-11-25T06:16:15;7.30;;;2.90;;
6143;SDS011;3103;49.492;8.474;2022-11-25T06:18:49;4.57;;;3.23;;
6143;SDS011;3103;49.492;8.474;2022-11-25T06:21:16;5.57;;;2.70;;
6143;SDS011;3103;49.492;8.474;2022-11-25T06:23:43;6.37;;;3.00;;
6143;SDS011;3103;49.492;8.474;2022-11-25T06:26:18;4.40;;;2.93;;
6143;SDS011;3103;49.492;8.474;2022-11-25T06:28:46;11.80;;;4.20;;
6143;SDS011;3103;49.492;8.474;2022-11-25T06:31:14;5.13;;;3.00;;
6143;SDS011;3103;49.492;8.474;2022-11-25T06:34:12;7.07;;;3.03;;
6143;SDS011;3103;49.492;8.474;2022-11-25T06:36:40;7.50;;;3.13;;
6143;SDS011;3103;49.492;8.474;2022-11-25T06:39:07;8.77;;;3.20;;
6143;SDS011;3103;49.492;8.474;2022-11-25T06:41:34;6.77;;;3.83;;
6143;SDS011;3103;49.492;8.474;2022-11-25T06:44:00;9.03;;;3.30;;
6143;SDS011;3103;49.492;8.474;2022-11-25T06:46:27;8.17;;;3.10;;
6143;SDS011;3103;49.492;8.474;2022-11-25T06:48:53;13.83;;;3.67;;
6143;SDS011;3103;49.492;8.474;2022-11-25T06:51:20;9.53;;;3.60;;
6143;SDS011;3103;49.492;8.474;2022-11-25T06:53:49;8.13;;;3.37;;
6143;SDS011;3103;49.492;8.474;2022-11-25T06:56:17;9.63;;;3.10;;
6143;SDS011;3103;49.492;8.474;2022-11-25T06:58:46;6.77;;;3.27;;
6143;SDS011;3103;49.492;8.474;2022-11-25T07:01:15;5.53;;;3.10;;
6143;SDS011;3103;49.492;8.474;2022-11-25T07:03:44;6.60;;;3.00;;
6143;SDS011;3103;49.492;8.474;2022-11-25T07:06:12;5.80;;;3.30;;
6143;SDS011;3103;49.492;8.474;2022-11-25T07:08:40;6.50;;;3.17;;
6143;SDS011;3103;49.492;8.474;2022-11-25T07:11:09;11.40;;;3.50;;
6143;SDS011;3103;49.492;8.474;2022-11-25T07:13:40;4.97;;;3.10;;
6143;SDS011;3103;49.492;8.474;2022-11-25T07:16:07;6.47;;;3.20;;
6143;SDS011;3103;49.492;8.474;2022-11-25T07:18:35;5.63;;;3.40;;
6143;SDS011;3103;49.492;8.474;2022-11-25T07:21:10;10.10;;;3.20;;
6143;SDS011;3103;49.492;8.474;2022-11-25T07:23:41;8.60;;;3.23;;
6143;SDS011;3103;49.492;8.474;2022-11-25T07:26:11;8.37;;;3.43;;
6143;SDS011;3103;49.492;8.474;2022-11-25T07:28:39;5.17;;;3.10;;
6143;SDS011;3103;49.492;8.474;2022-11-25T07:31:22;6.27;;;3.67;;
6143;SDS011;3103;49.492;8.474;2022-11-25T07:33:58;6.90;;;3.03;;
6143;SDS011;3103;49.492;8.474;2022-11-25T07:36:27;6.47;;;3.57;;
6143;SDS011;3103;49.492;8.474;2022-11-25T07:38:59;10.73;;;3.50;;
6143;SDS011;3103;49.492;8.474;2022-11-25T07:41:28;10.57;;;4.27;;
6143;SDS011;3103;49.492;8.474;2022-11-25T07:43:57;9.53;;;3.80;;
6143;SDS011;3103;49.492;8.474;2022-11-25T07:46:28;7.87;;;3.70;;
6143;SDS011;3103;49.492;8.474;2022-11-25T07:49:02;5.27;;;2.97;;
6143;SDS011;3103;49.492;8.474;2022-11-25T07:51:32;9.50;;;3.37;;
6143;SDS011;3103;49.492;8.474;2022-11-25T07:54:01;8.13;;;3.87;;
6143;SDS011;3103;49.492;8.474;2022-11-25T07:56:32;5.70;;;3.83;;
6143;SDS011;3103;49.492;8.474;2022-11-25T07:59:00;7.67;;;3.33;;
6143;SDS011;3103;49.492;8.474;2022-11-25T08:01:27;10.27;;;3.70;;
6143;SDS011;3103;49.492;8.474;2022-11-25T08:03:54;9.90;;;3.40;;
6143;SDS011;3103;49.492;8.474;2022-11-25T08:06:25;6.80;;;3.70;;
6143;SDS011;3103;49.492;8.474;2022-11-25T08:08:54;8.53;;;3.87;;
6143;SDS011;3103;49.492;8.474;2022-11-25T08:11:26;7.43;;;3.90;;
6143;SDS011;3103;49.492;8.474;2022-11-25T08:13:55;5.53;;;3.33;;
6143;SDS011;3103;49.492;8.474;2022-11-25T08:16:22;7.83;;;3.40;;
6143;SDS011;3103;49.492;8.474;2022-11-25T08:18:54;5.60;;;2.80;;
6143;SDS011;3103;49.492;8.474;2022-11-25T08:21:22;11.03;;;5.70;;
6143;SDS011;3103;49.492;8.474;2022-11-25T08:23:49;9.30;;;4.10;;
6143;SDS011;3103;49.492;8.474;2022-11-25T08:28:47;8.77;;;4.00;;
6143;SDS011;3103;49.492;8.474;2022-11-25T08:33:45;11.43;;;4.70;;
6143;SDS011;3103;49.492;8.474;2022-11-25T08:36:12;8.77;;;3.80;;
6143;SDS011;3103;49.492;8.474;2022-11-25T08:38:39;8.10;;;4.17;;
6143;SDS011;3103;49.492;8.474;2022-11-25T08:41:11;8.03;;;4.13;;
6143;SDS011;3103;49.492;8.474;2022-11-25T08:43:39;9.20;;;4.53;;
6143;SDS011;3103;49.492;8.474;2022-11-25T08:46:12;11.43;;;6.27;;
6143;SDS011;3103;49.492;8.474;2022-11-25T08:48:40;9.53;;;4.63;;
6143;SDS011;3103;49.492;8.474;2022-11-25T08:51:10;8.17;;;4.20;;
6143;SDS011;3103;49.492;8.474;2022-11-25T08:53:39;14.73;;;7.03;;
6143;SDS011;3103;49.492;8.474;2022-11-25T08:56:07;11.97;;;4.97;;
6143;SDS011;3103;49.492;8.474;2022-11-25T08:58:34;11.10;;;5.37;;
6143;SDS011;3103;49.492;8.474;2022-11-25T09:01:02;9.30;;;4.47;;
6143;SDS011;3103;49.492;8.474;2022-11-25T09:03:31;9.77;;;4.73;;
6143;SDS011;3103;49.492;8.474;2022-11-25T09:05:59;6.63;;;4.33;;
6143;SDS011;3103;49.492;8.474;2022-11-25T09:08:27;9.17;;;5.43;;
6143;SDS011;3103;49.492;8.474;2022-11-25T09:10:55;14.17;;;6.70;;
6143;SDS011;3103;49.492;8.474;2022-11-25T09:13:23;11.63;;;6.03;;
6143;SDS011;3103;49.492;8.474;2022-11-25T09:15:50;11.57;;;5.33;;
6143;SDS011;3103;49.492;8.474;2022-11-25T09:18:17;10.43;;;5.87;;
6143;SDS011;3103;49.492;8.474;2022-11-25T09:20:46;9.30;;;3.93;;
6143;SDS011;3103;49.492;8.474;2022-11-25T09:23:13;8.67;;;4.60;;
6143;SDS011;3103;49.492;8.474;2022-11-25T09:25:39;9.33;;;5.47;;
6143;SDS011;3103;49.492;8.474;2022-11-25T09:28:06;12.57;;;6.60;;
6143;SDS011;3103;49.492;8.474;2022-11-25T09:30:33;9.80;;;6.57;;
6143;SDS011;3103;49.492;8.474;2022-11-25T09:32:59;18.20;;;6.93;;
6143;SDS011;3103;49.492;8.474;2022-11-25T09:35:26;11.20;;;5.70;;
6143;SDS011;3103;49.492;8.474;2022-11-25T09:37:53;17.97;;;7.37;;
6143;SDS011;3103;49.492;8.474;2022-11-25T09:40:24;11.03;;;6.73;;
6143;SDS011;3103;49.492;8.474;2022-11-25T09:42:57;14.37;;;7.97;;
6143;SDS011;3103;49.492;8.474;2022-11-25T09:46:36;10.53;;;5.50;;
6143;SDS011;3103;49.492;8.474;2022-11-25T09:49:34;10.73;;;5.57;;
6143;SDS011;3103;49.492;8.474;2022-11-25T09:52:28;12.93;;;5.37;;
6143;SDS011;3103;49.492;8.474;2022-11-25T09:55:20;8.93;;;4.60;;
6143;SDS011;3103;49.492;8.474;2022-11-25T10:00:41;13.40;;;7.87;;
6143;SDS011;3103;49.492;8.474;2022-11-25T10:06:07;8.70;;;4.73;;
6143;SDS011;3103;49.492;8.474;2022-11-25T10:08:49;15.93;;;8.17;;
6143;SDS011;3103;49.492;8.474;2022-11-25T10:21:46;8.60;;;3.80;;
6143;SDS011;3103;49.492;8.474;2022-11-25T10:24:13;9.10;;;4.67;;
6143;SDS011;3103;49.492;8.474;2022-11-25T10:26:44;9.93;;;4.70;;
6143;SDS011;3103;49.492;8.474;2022-11-25T10:29:24;11.80;;;5.73;;
6143;SDS011;3103;49.492;8.474;2022-11-25T10:31:55;8.00;;;4.20;;
6143;SDS011;3103;49.492;8.474;2022-11-25T10:34:35;13.73;;;8.87;;
6143;SDS011;3103;49.492;8.474;2022-11-25T10:37:08;11.30;;;4.90;;
6143;SDS011;3103;49.492;8.474;2022-11-25T10:39:40;9.37;;;4.80;;
6143;SDS011;3103;49.492;8.474;2022-11-25T10:42:13;10.83;;;5.33;;
6143;SDS011;3103;49.492;8.474;2022-11-25T10:44:43;12.33;;;4.90;;
6143;SDS011;3103;49.492;8.474;2022-11-25T10:47:21;9.47;;;4.67;;
6143;SDS011;3103;49.492;8.474;2022-11-25T11:01:02;7.70;;;4.00;;
6143;SDS011;3103;49.492;8.474;2022-11-25T11:03:31;7.90;;;4.17;;
6143;SDS011;3103;49.492;8.474;2022-11-25T11:05:58;6.73;;;2.97;;
6143;SDS011;3103;49.492;8.474;2022-11-25T11:08:26;8.17;;;3.50;;
6143;SDS011;3103;49.492;8.474;2022-11-25T11:13:41;5.90;;;3.33;;
6143;SDS011;3103;49.492;8.474;2022-11-25T11:16:54;6.57;;;3.70;;
6143;SDS011;3103;49.492;8.474;2022-11-25T11:18:57;7.97;;;3.67;;
6143;SDS011;3103;49.492;8.474;2022-11-25T11:23:58;9.20;;;3.80;;
6143;SDS011;3103;49.492;8.474;2022-11-25T11:26:33;11.40;;;4.17;;
6143;SDS011;3103;49.492;8.474;2022-11-25T11:29:02;8.30;;;4.33;;
6143;SDS011;3103;49.492;8.474;2022-11-25T11:31:58;7.33;;;3.97;;
6143;SDS011;3103;49.492;8.474;2022-11-25T11:34:48;11.70;;;4.13;;
6143;SDS011;3103;49.492;8.474;2022-11-25T11:40:17;12.93;;;4.17;;
6143;SDS011;3103;49.492;8.474;2022-11-25T11:52:06;7.53;;;4.70;;
6143;SDS011;3103;49.492;8.474;2022-11-25T11:54:52;10.03;;;5.27;;
6143;SDS011;3103;49.492;8.474;2022-11-25T11:58:25;10.80;;;4.80;;
6143;SDS011;3103;49.492;8.474;2022-11-25T12:00:31;11.10;;;4.90;;
6143;SDS011;3103;49.492;8.474;2022-11-25T12:03:10;9.93;;;5.13;;
6143;SDS011;3103;49.492;8.474;2022-11-25T12:05:41;10.27;;;4.07;;
6143;SDS011;3103;49.492;8.474;2022-11-25T12:08:18;12.20;;;6.60;;
6143;SDS011;3103;49.492;8.474;2022-11-25T12:10:55;13.43;;;5.77;;
6143;SDS011;3103;49.492;8.474;2022-11-25T12:16:18;9.73;;;5.70;;
6143;SDS011;3103;49.492;8.474;2022-11-25T12:18:57;14.17;;;6.80;;
6143;SDS011;3103;49.492;8.474;2022-11-25T12:21:43;11.90;;;5.03;;
6143;SDS011;3103;49.492;8.474;2022-11-25T12:24:20;16.83;;;4.83;;
6143;SDS011;3103;49.492;8.474;2022-11-25T12:37:55;15.83;;;7.27;;
6143;SDS011;3103;49.492;8.474;2022-11-25T12:42:59;16.33;;;9.93;;
6143;SDS011;3103;49.492;8.474;2022-11-25T12:48:57;11.27;;;5.27;;
6143;SDS011;3103;49.492;8.474;2022-11-25T12:54:17;10.30;;;4.57;;
6143;SDS011;3103;49.492;8.474;2022-11-25T12:59:55;8.97;;;4.67;;
6143;SDS011;3103;49.492;8.474;2022-11-25T13:02:53;8.27;;;5.37;;
6143;SDS011;3103;49.492;8.474;2022-11-25T13:08:22;9.47;;;5.83;;
6143;SDS011;3103;49.492;8.474;2022-11-25T13:11:07;22.37;;;10.83;;
6143;SDS011;3103;49.492;8.474;2022-11-25T13:16:27;16.80;;;6.63;;
6143;SDS011;3103;49.492;8.474;2022-11-25T13:18:55;14.53;;;7.50;;
6143;SDS011;3103;49.492;8.474;2022-11-25T13:21:22;15.17;;;6.33;;
6143;SDS011;3103;49.492;8.474;2022-11-25T13:23:56;12.60;;;6.57;;
6143;SDS011;3103;49.492;8.474;2022-11-25T13:28:55;14.70;;;7.80;;
6143;SDS011;3103;49.492;8.474;2022-11-25T13:31:23;17.30;;;9.37;;
6143;SDS011;3103;49.492;8.474;2022-11-25T13:33:58;31.93;;;17.53;;
6143;SDS011;3103;49.492;8.474;2022-11-25T13:39:16;11.80;;;6.00;;
6143;SDS011;3103;49.492;8.474;2022-11-25T13:41:45;15.40;;;7.27;;
6143;SDS011;3103;49.492;8.474;2022-11-25T13:44:26;19.30;;;9.63;;
6143;SDS011;3103;49.492;8.474;2022-11-25T13:46:58;11.73;;;5.53;;
6143;SDS011;3103;49.492;8.474;2022-11-25T13:54:46;12.10;;;5.57;;
6143;SDS011;3103;49.492;8.474;2022-11-25T13:57:31;15.03;;;6.40;;
6143;SDS011;3103;49.492;8.474;2022-11-25T14:02:53;10.57;;;5.50;;
6143;SDS011;3103;49.492;8.474;2022-11-25T14:05:58;11.17;;;4.73;;
6143;SDS011;3103;49.492;8.474;2022-11-25T14:22:55;13.63;;;4.63;;
6143;SDS011;3103;49.492;8.474;2022-11-25T14:25:29;8.17;;;4.30;;
6143;SDS011;3103;49.492;8.474;2022-11-25T14:28:14;10.37;;;5.20;;
6143;SDS011;3103;49.492;8.474;2022-11-25T14:30:50;17.27;;;8.77;;
6143;SDS011;3103;49.492;8.474;2022-11-25T14:33:23;10.80;;;4.93;;
6143;SDS011;3103;49.492;8.474;2022-11-25T14:36:13;16.07;;;6.67;;
6143;SDS011;3103;49.492;8.474;2022-11-25T14:41:22;17.00;;;6.17;;
6143;SDS011;3103;49.492;8.474;2022-11-25T14:43:56;12.97;;;5.43;;
6143;SDS011;3103;49.492;8.474;2022-11-25T14:46:56;14.00;;;5.70;;
6143;SDS011;3103;49.492;8.474;2022-11-25T14:49:50;11.67;;;5.23;;
6143;SDS011;3103;49.492;8.474;2022-11-25T14:52:38;13.20;;;6.63;;
6143;SDS011;3103;49.492;8.474;2022-11-25T14:55:09;11.77;;;5.20;;
6143;SDS011;3103;49.492;8.474;2022-11-25T14:57:42;13.97;;;5.27;;
6143;SDS011;3103;49.492;8.474;2022-11-25T15:00:14;18.63;;;5.23;;
6143;SDS011;3103;49.492;8.474;2022-11-25T15:02:56;11.03;;;4.77;;
6143;SDS011;3103;49.492;8.474;2022-11-25T15:05:26;12.90;;;5.20;;
6143;SDS011;3103;49.492;8.474;2022-11-25T15:16:14;10.10;;;5.57;;
6143;SDS011;3103;49.492;8.474;2022-11-25T15:18:57;12.73;;;5.40;;
6143;SDS011;3103;49.492;8.474;2022-11-25T15:21:29;12.83;;;5.40;;
6143;SDS011;3103;49.492;8.474;2022-11-25T15:26:56;14.03;;;4.80;;
6143;SDS011;3103;49.492;8.474;2022-11-25T15:29:25;8.77;;;4.80;;
6143;SDS011;3103;49.492;8.474;2022-11-25T15:31:54;10.37;;;4.77;;
6143;SDS011;3103;49.492;8.474;2022-11-25T15:34:22;11.57;;;5.33;;
6143;SDS011;3103;49.492;8.474;2022-11-25T15:36:50;8.93;;;4.37;;
6143;SDS011;3103;49.492;8.474;2022-11-25T15:41:50;8.47;;;4.80;;
6143;SDS011;3103;49.492;8.474;2022-11-25T15:44:26;11.20;;;5.43;;
6143;SDS011;3103;49.492;8.474;2022-11-25T15:46:59;12.93;;;4.80;;
6143;SDS011;3103;49.492;8.474;2022-11-25T15:49:33;9.43;;;4.40;;
6143;SDS011;3103;49.492;8.474;2022-11-25T15:52:14;11.97;;;4.73;;
6143;SDS011;3103;49.492;8.474;2022-11-25T15:54:45;10.90;;;5.07;;
6143;SDS011;3103;49.492;8.474;2022-11-25T15:57:27;9.50;;;4.47;;
6143;SDS011;3103;49.492;8.474;2022-11-25T16:02:37;10.53;;;4.83;;
6143;SDS011;3103;49.492;8.474;2022-11-25T16:10:20;14.67;;;3.63;;
6143;SDS011;3103;49.492;8.474;2022-11-25T16:15:52;13.67;;;5.20;;
6143;SDS011;3103;49.492;8.474;2022-11-25T16:21:28;13.47;;;5.60;;
6143;SDS011;3103;49.492;8.474;2022-11-25T16:26:34;10.17;;;4.50;;
6143;SDS011;3103;49.492;8.474;2022-11-25T16:29:15;12.43;;;5.57;;
6143;SDS011;3103;49.492;8.474;2022-11-25T16:31:43;9.50;;;4.77;;
6143;SDS011;3103;49.492;8.474;2022-11-25T16:34:15;15.03;;;5.73;;
6143;SDS011;3103;49.492;8.474;2022-11-25T16:36:43;14.40;;;6.67;;
6143;SDS011;3103;49.492;8.474;2022-11-25T16:39:10;21.23;;;8.07;;
6143;SDS011;3103;49.492;8.474;2022-11-25T16:41:39;14.90;;;6.27;;
6143;SDS011;3103;49.492;8.474;2022-11-25T16:44:12;14.67;;;6.83;;
6143;SDS011;3103;49.492;8.474;2022-11-25T16:46:44;18.07;;;8.00;;
6143;SDS011;3103;49.492;8.474;2022-11-25T16:49:15;17.00;;;7.60;;
6143;SDS011;3103;49.492;8.474;2022-11-25T16:51:43;18.33;;;6.97;;
6143;SDS011;3103;49.492;8.474;2022-11-25T16:54:10;13.90;;;7.37;;
6143;SDS011;3103;49.492;8.474;2022-11-25T16:56:38;20.57;;;6.93;;
6143;SDS011;3103;49.492;8.474;2022-11-25T16:59:41;14.63;;;6.50;;
6143;SDS011;3103;49.492;8.474;2022-11-25T17:02:02;9.97;;;5.30;;
6143;SDS011;3103;49.492;8.474;2022-11-25T17:04:34;12.37;;;5.27;;
6143;SDS011;3103;49.492;8.474;2022-11-25T17:07:01;14.70;;;6.00;;
6143;SDS011;3103;49.492;8.474;2022-11-25T17:09:50;15.30;;;5.27;;
6143;SDS011;3103;49.492;8.474;2022-11-25T17:12:21;12.07;;;5.60;;
6143;SDS011;3103;49.492;8.474;2022-11-25T17:14:54;18.93;;;7.40;;
6143;SDS011;3103;49.492;8.474;2022-11-25T17:17:22;10.83;;;5.73;;
6143;SDS011;3103;49.492;8.474;2022-11-25T17:19:51;11.30;;;4.93;;
6143;SDS011;3103;49.492;8.474;2022-11-25T17:22:24;15.90;;;5.97;;
6143;SDS011;3103;49.492;8.474;2022-11-25T17:24:52;14.53;;;6.97;;
6143;SDS011;3103;49.492;8.474;2022-11-25T17:27:21;19.90;;;6.97;;
6143;SDS011;3103;49.492;8.474;2022-11-25T17:29:52;11.37;;;5.60;;
6143;SDS011;3103;49.492;8.474;2022-11-25T17:32:19;20.27;;;6.73;;
6143;SDS011;3103;49.492;8.474;2022-11-25T17:34:47;13.87;;;5.30;;
6143;SDS011;3103;49.492;8.474;2022-11-25T17:37:14;13.80;;;6.20;;
6143;SDS011;3103;49.492;8.474;2022-11-25T17:39:43;10.07;;;5.57;;
6143;SDS011;3103;49.492;8.474;2022-11-25T17:42:11;14.53;;;6.17;;
6143;SDS011;3103;49.492;8.474;2022-11-25T17:44:43;16.90;;;6.13;;
6143;SDS011;3103;49.492;8.474;2022-11-25T17:47:18;14.37;;;6.17;;
6143;SDS011;3103;49.492;8.474;2022-11-25T17:49:45;10.10;;;5.30;;
6143;SDS011;3103;49.492;8.474;2022-11-25T17:52:11;14.13;;;5.53;;
6143;SDS011;3103;49.492;8.474;2022-11-25T17:54:38;11.87;;;5.83;;
6143;SDS011;3103;49.492;8.474;2022-11-25T17:57:05;12.83;;;5.70;;
6143;SDS011;3103;49.492;8.474;2022-11-25T17:59:36;14.83;;;6.37;;
6143;SDS011;3103;49.492;8.474;2022-11-25T18:02:09;14.80;;;6.30;;
6143;SDS011;3103;49.492;8.474;2022-11-25T18:04:47;12.33;;;6.67;;
6143;SDS011;3103;49.492;8.474;2022-11-25T18:07:14;16.20;;;6.70;;